Capitol Logistics 619


KMIA
Miami International Airport
Miami, Florida, US
MROC
Juan Santamar?a International Airport
San Jose, , CR

Activity Log

Date Flight Route Aircraft Duration
06/21/2019 CPX719 MNATE2 MNATE Y442 FUNDI UZ465 ALVEK UM328 SELEK UZ403 PIRAS BARRA1P B763 2h 20m

Route Details

Aircraft Information
Primary: Boeing 767-300BDSF
Backup: Not Available
Route Data
Distance: 976nm
Sched. Duration: 2h 20m
Avg. Duration: 2h 20m (-0m)
Times Flown: 1
Recm'd Route: MNATE2 MNATE Y442 FUNDI UZ465 ALVEK UM328 SELEK UZ403 PIRAS BARRA1P
Planned Altitude: 35,000ft
Origin Wx: KMIA 060553Z 10009KT 8SM -RA FEW016 BKN034 BKN080 OVC250 28/26 A2998 RMK AO2 RAB49 SLP152 P0000 60000 T02830261 10283 20278 58015
Dest. Wx: MROC 060600Z VRB02KT 8000 VCFG FEW001 BKN040 201/21 A3006 NOSIG
Notes:

Financial History
Total Freight: 87,006lbs
Average Load: 87,006lbs/flt
Fuel Used: 21,558lbs
Avg. Fuel Used: 21,558lbs/flt
Fuel Expense: $26,516
Avg. Fuel Expense: $26,516
Avg. Fuel Cost: $1.23/lbs
Total Gross Income: $157,481
Pilot Pay: $149
Total Expenses: $17,060
Total Revenue: $113,343
Average Revenue: $157,480.86